createdAt,value
2023-04-15T00:00:53.945Z,5.80
2023-04-15T00:02:00.382Z,7.60
2023-04-15T00:03:04.527Z,6.53
2023-04-15T00:04:07.727Z,7.32
2023-04-15T00:05:11.206Z,6.97
2023-04-15T00:06:14.790Z,7.15
2023-04-15T00:07:18.235Z,8.07
2023-04-15T00:08:21.195Z,8.73
2023-04-15T00:09:24.429Z,6.25
2023-04-15T00:10:27.850Z,6.03
2023-04-15T00:11:30.856Z,5.45
2023-04-15T00:12:34.001Z,5.45
2023-04-15T00:13:37.134Z,2.95
2023-04-15T00:14:40.339Z,3.87
2023-04-15T00:15:43.493Z,3.67
2023-04-15T00:16:46.768Z,5.55
2023-04-15T00:17:52.360Z,4.15
2023-04-15T00:18:55.340Z,5.37
2023-04-15T00:20:00.386Z,3.92
2023-04-15T00:21:05.328Z,4.82
2023-04-15T00:22:08.496Z,6.87
2023-04-15T00:23:12.099Z,3.83
2023-04-15T00:24:15.264Z,3.78
2023-04-15T00:25:18.358Z,5.07
2023-04-15T00:26:21.373Z,4.28
2023-04-15T00:27:24.535Z,4.25
2023-04-15T00:28:28.272Z,3.10
2023-04-15T00:29:32.283Z,4.05
2023-04-15T00:30:35.798Z,3.05
2023-04-15T00:31:38.885Z,2.45
2023-04-15T00:32:42.619Z,3.20
2023-04-15T00:33:45.805Z,2.67
2023-04-15T00:34:50.344Z,1.90
2023-04-15T00:35:53.950Z,1.60
2023-04-15T00:36:57.017Z,2.12
2023-04-15T00:38:00.183Z,1.12
2023-04-15T00:39:03.556Z,1.27
2023-04-15T00:40:08.158Z,2.10
2023-04-15T00:41:11.751Z,1.52
2023-04-15T00:42:15.507Z,1.15
2023-04-15T00:43:18.832Z,1.12
2023-04-15T00:44:22.015Z,1.75
2023-04-15T00:45:26.000Z,1.10
2023-04-15T00:46:31.479Z,1.08
2023-04-15T00:47:35.838Z,1.20
2023-04-15T00:48:46.176Z,1.20
2023-04-15T00:49:49.182Z,1.35
2023-04-15T00:50:52.240Z,1.98
2023-04-15T00:51:55.231Z,0.90
2023-04-15T00:52:58.227Z,1.52
2023-04-15T00:54:01.664Z,1.77
2023-04-15T00:55:05.685Z,1.65
2023-04-15T00:56:09.044Z,1.73
2023-04-15T00:57:12.056Z,1.67
2023-04-15T00:58:15.790Z,2.55
2023-04-15T00:59:19.152Z,1.70
2023-04-15T01:00:23.035Z,1.70
2023-04-15T01:01:27.596Z,2.55
2023-04-15T01:02:32.951Z,2.15
2023-04-15T01:03:36.635Z,1.62
2023-04-15T01:04:39.799Z,2.12
2023-04-15T01:05:42.679Z,2.00
2023-04-15T01:06:46.126Z,4.53
2023-04-15T01:07:49.241Z,3.70
2023-04-15T01:08:52.169Z,2.85
2023-04-15T01:09:55.923Z,2.00
2023-04-15T01:11:04.063Z,2.95
2023-04-15T01:12:08.785Z,2.92
2023-04-15T01:13:11.781Z,3.47
2023-04-15T01:14:14.786Z,2.55
2023-04-15T01:15:17.677Z,3.10
2023-04-15T01:16:21.011Z,3.28
2023-04-15T01:17:25.779Z,2.78
2023-04-15T01:18:29.698Z,3.28
2023-04-15T01:19:32.792Z,2.78
2023-04-15T01:20:36.664Z,2.60
2023-04-15T01:21:41.220Z,2.70
2023-04-15T01:22:45.501Z,2.80
2023-04-15T01:23:49.277Z,2.30
2023-04-15T01:25:02.497Z,3.22
2023-04-15T01:26:09.199Z,3.53
2023-04-15T01:27:12.337Z,3.62
2023-04-15T01:28:15.378Z,3.55
2023-04-15T01:29:18.957Z,2.12
2023-04-15T01:30:22.019Z,2.72
2023-04-15T01:31:24.838Z,2.20
2023-04-15T01:32:27.846Z,5.28
2023-04-15T01:33:30.910Z,1.80
2023-04-15T01:34:35.734Z,3.53
2023-04-15T01:35:39.213Z,2.60
2023-04-15T01:36:42.268Z,2.40
2023-04-15T01:37:45.677Z,2.85
2023-04-15T01:38:48.960Z,3.40
2023-04-15T01:39:52.631Z,2.50
2023-04-15T01:40:55.736Z,3.45
2023-04-15T01:41:59.005Z,6.97
2023-04-15T01:43:02.898Z,2.70
2023-04-15T01:44:07.434Z,4.05
2023-04-15T01:45:10.949Z,3.58
2023-04-15T01:46:14.097Z,3.03
2023-04-15T01:47:17.926Z,3.62
2023-04-15T01:48:21.476Z,3.05
2023-04-15T01:49:24.503Z,2.00
2023-04-15T01:50:28.601Z,3.85
2023-04-15T01:51:32.300Z,4.62
2023-04-15T01:52:35.291Z,3.60
2023-04-15T01:53:38.369Z,4.25
2023-04-15T01:54:41.384Z,3.58
2023-04-15T01:55:44.557Z,3.30
2023-04-15T01:56:47.841Z,3.08
2023-04-15T01:57:51.198Z,4.25
2023-04-15T01:58:54.347Z,4.07
2023-04-15T01:59:57.362Z,3.37
2023-04-15T02:01:00.862Z,5.03
2023-04-15T02:02:04.776Z,3.83
2023-04-15T02:03:07.971Z,5.43
2023-04-15T02:04:16.945Z,3.78
2023-04-15T02:05:20.065Z,3.42
2023-04-15T02:06:23.085Z,3.60
2023-04-15T02:07:26.588Z,4.97
2023-04-15T02:08:30.048Z,3.97
2023-04-15T02:09:33.350Z,4.25
2023-04-15T02:10:36.357Z,3.83
2023-04-15T02:11:39.489Z,3.85
2023-04-15T02:12:42.843Z,7.87
2023-04-15T02:13:45.812Z,3.67
2023-04-15T02:14:48.879Z,5.55
2023-04-15T02:15:52.966Z,6.28
2023-04-15T02:16:56.888Z,4.25
2023-04-15T02:18:01.392Z,3.33
2023-04-15T02:19:04.735Z,4.20
2023-04-15T02:20:09.128Z,5.00
2023-04-15T02:21:12.087Z,4.70
2023-04-15T02:22:19.028Z,4.25
2023-04-15T02:23:22.180Z,4.80
2023-04-15T02:24:25.171Z,4.40
2023-04-15T02:25:28.186Z,4.80
2023-04-15T02:26:33.349Z,4.95
2023-04-15T02:27:37.169Z,5.40
2023-04-15T02:28:40.372Z,5.87
2023-04-15T02:29:44.533Z,4.47
2023-04-15T02:30:51.463Z,7.32
2023-04-15T02:31:54.627Z,7.50
2023-04-15T02:32:57.531Z,5.12
2023-04-15T02:34:00.731Z,5.28
2023-04-15T02:35:09.144Z,5.05
2023-04-15T02:36:12.727Z,5.45
2023-04-15T02:37:16.403Z,5.53
2023-04-15T02:38:19.385Z,6.18
2023-04-15T02:39:22.387Z,5.85
2023-04-15T02:40:25.452Z,5.68
2023-04-15T02:41:30.320Z,4.95
2023-04-15T02:42:33.374Z,5.50
2023-04-15T02:43:36.759Z,4.90
2023-04-15T02:44:39.978Z,4.82
2023-04-15T02:45:43.892Z,6.80
2023-04-15T02:46:51.300Z,7.80
2023-04-15T02:47:54.816Z,5.37
2023-04-15T02:49:00.354Z,6.32
2023-04-15T02:50:04.557Z,7.50
2023-04-15T02:51:20.132Z,8.10
2023-04-15T02:52:23.009Z,7.60
2023-04-15T02:53:27.233Z,6.35
2023-04-15T02:54:30.220Z,6.25
2023-04-15T02:55:33.395Z,6.65
2023-04-15T02:56:36.327Z,6.28
2023-04-15T02:57:41.045Z,5.75
2023-04-15T02:58:50.940Z,6.25
2023-04-15T02:59:54.098Z,7.10
2023-04-15T03:00:57.036Z,7.97
2023-04-15T03:02:02.699Z,7.18
2023-04-15T03:03:07.007Z,5.62
2023-04-15T03:04:10.429Z,7.00
2023-04-15T03:05:15.143Z,8.85
2023-04-15T03:06:18.196Z,7.00
2023-04-15T03:07:21.401Z,6.75
2023-04-15T03:08:24.467Z,7.25
2023-04-15T03:09:27.681Z,6.32
2023-04-15T03:10:30.727Z,10.35
2023-04-15T03:11:36.025Z,7.22
2023-04-15T03:12:39.766Z,7.53
2023-04-15T03:13:43.559Z,7.20
2023-04-15T03:14:46.393Z,7.78
2023-04-15T03:15:49.368Z,6.37
2023-04-15T03:16:52.538Z,7.37
2023-04-15T03:17:56.738Z,6.45
2023-04-15T03:18:59.873Z,7.10
2023-04-15T03:20:05.587Z,6.28
2023-04-15T03:21:08.451Z,9.32
2023-04-15T03:22:11.775Z,8.32
2023-04-15T03:23:14.843Z,7.30
2023-04-15T03:24:18.237Z,6.32
2023-04-15T03:25:21.882Z,7.57
2023-04-15T03:26:27.374Z,7.85
2023-04-15T03:27:36.238Z,7.80
2023-04-15T03:28:39.655Z,8.35
2023-04-15T03:29:42.631Z,9.13
2023-04-15T03:30:45.927Z,7.97
2023-04-15T03:31:48.994Z,11.30
2023-04-15T03:32:52.033Z,8.95
2023-04-15T03:33:55.092Z,7.00
2023-04-15T03:34:58.014Z,7.10
2023-04-15T03:36:01.198Z,8.27
2023-04-15T03:37:04.182Z,7.18
2023-04-15T03:38:07.364Z,6.95
2023-04-15T03:39:10.547Z,8.75
2023-04-15T03:40:13.644Z,7.85
2023-04-15T03:41:16.533Z,7.45
2023-04-15T03:42:19.549Z,7.30
2023-04-15T03:43:22.709Z,6.75
2023-04-15T03:44:27.171Z,8.73
2023-04-15T03:45:30.246Z,9.45
2023-04-15T03:46:33.571Z,7.65
2023-04-15T03:47:36.891Z,10.40
2023-04-15T03:48:39.887Z,8.80
2023-04-15T03:49:42.740Z,10.10
2023-04-15T03:50:46.376Z,7.22
2023-04-15T03:51:49.523Z,10.98
2023-04-15T03:52:52.436Z,8.20
2023-04-15T03:53:55.388Z,8.57
2023-04-15T03:54:58.366Z,8.55
2023-04-15T03:56:01.951Z,7.35
2023-04-15T03:57:04.944Z,7.53
2023-04-15T03:58:08.053Z,10.40
2023-04-15T03:59:11.715Z,8.95
2023-04-15T04:00:14.793Z,8.98
2023-04-15T04:01:17.712Z,8.85
2023-04-15T04:02:20.726Z,10.32
2023-04-15T04:03:24.095Z,9.05
2023-04-15T04:04:27.292Z,10.30
2023-04-15T04:05:31.047Z,10.68
2023-04-15T04:06:34.212Z,9.75
2023-04-15T04:07:37.270Z,10.65
2023-04-15T04:08:40.251Z,10.38
2023-04-15T04:09:43.232Z,11.35
2023-04-15T04:10:46.276Z,9.85
2023-04-15T04:11:49.112Z,13.45
2023-04-15T04:12:52.257Z,8.93
2023-04-15T04:13:55.292Z,9.25
2023-04-15T04:14:58.302Z,11.20
2023-04-15T04:16:02.148Z,10.77
2023-04-15T04:17:05.400Z,12.32
2023-04-15T04:18:08.543Z,12.93
2023-04-15T04:19:11.586Z,11.00
2023-04-15T04:20:14.466Z,12.70
2023-04-15T04:21:17.577Z,12.73
2023-04-15T04:22:24.381Z,11.35
2023-04-15T04:23:27.336Z,11.23
2023-04-15T04:24:30.301Z,12.20
2023-04-15T04:25:33.397Z,11.12
2023-04-15T04:26:36.741Z,11.32
2023-04-15T04:27:40.098Z,9.57
2023-04-15T04:28:43.499Z,13.00
2023-04-15T04:29:48.125Z,11.40
2023-04-15T04:30:51.376Z,12.15
2023-04-15T04:31:54.444Z,11.10
2023-04-15T04:32:57.805Z,10.95
2023-04-15T04:34:01.311Z,11.18
2023-04-15T04:35:05.153Z,11.93
2023-04-15T04:36:08.363Z,11.10
2023-04-15T04:37:11.705Z,11.60
2023-04-15T04:38:14.656Z,10.32
2023-04-15T04:39:17.750Z,10.68
2023-04-15T04:40:20.973Z,10.52
2023-04-15T04:41:23.982Z,9.80
2023-04-15T04:42:27.299Z,9.13
2023-04-15T04:43:30.228Z,11.30
2023-04-15T04:44:33.460Z,10.10
2023-04-15T04:45:36.599Z,8.02
2023-04-15T04:46:39.570Z,11.07
2023-04-15T04:47:42.791Z,10.90
2023-04-15T04:48:47.159Z,9.77
2023-04-15T04:49:50.250Z,11.25
2023-04-15T04:50:53.556Z,6.87
2023-04-15T04:51:57.797Z,5.50
2023-04-15T04:53:01.764Z,6.45
2023-04-15T04:54:04.733Z,7.50
2023-04-15T04:55:08.878Z,8.30
2023-04-15T04:56:11.867Z,7.12
2023-04-15T04:57:14.769Z,6.40
2023-04-15T04:58:17.807Z,7.95
2023-04-15T04:59:20.845Z,8.10
2023-04-15T05:00:23.842Z,7.95
2023-04-15T05:01:27.811Z,7.82
2023-04-15T05:02:31.318Z,7.00
2023-04-15T05:03:34.647Z,8.55
2023-04-15T05:04:37.666Z,7.25
2023-04-15T05:05:41.368Z,6.45
2023-04-15T05:06:44.261Z,7.18
2023-04-15T05:07:47.584Z,6.93
2023-04-15T05:08:50.710Z,6.55
2023-04-15T05:09:54.026Z,8.32
2023-04-15T05:10:57.004Z,7.10
2023-04-15T05:12:00.152Z,5.57
2023-04-15T05:13:03.160Z,8.82
2023-04-15T05:14:06.324Z,7.87
2023-04-15T05:15:09.673Z,8.10
2023-04-15T05:16:12.638Z,7.78
2023-04-15T05:17:15.557Z,7.45
2023-04-15T05:18:18.528Z,7.22
2023-04-15T05:19:21.624Z,8.43
2023-04-15T05:20:24.821Z,7.20
2023-04-15T05:21:28.011Z,8.40
2023-04-15T05:22:31.268Z,8.40
2023-04-15T05:23:34.392Z,7.65
2023-04-15T05:24:37.545Z,7.20
2023-04-15T05:25:40.834Z,6.87
2023-04-15T05:26:43.995Z,7.82
2023-04-15T05:27:47.032Z,7.10
2023-04-15T05:28:50.076Z,7.75
2023-04-15T05:29:53.078Z,8.27
2023-04-15T05:30:56.548Z,5.87
2023-04-15T05:31:59.614Z,5.53
2023-04-15T05:33:02.755Z,6.05
2023-04-15T05:34:05.773Z,6.82
2023-04-15T05:35:08.883Z,7.25
2023-04-15T05:36:12.373Z,5.68
2023-04-15T05:37:15.846Z,5.80
2023-04-15T05:38:19.023Z,6.25
2023-04-15T05:39:22.271Z,6.20
2023-04-15T05:40:25.350Z,7.75
2023-04-15T05:41:28.206Z,4.95
2023-04-15T05:42:31.199Z,7.07
2023-04-15T05:43:34.096Z,5.40
2023-04-15T05:44:37.119Z,5.43
2023-04-15T05:45:40.137Z,5.15
2023-04-15T05:46:43.670Z,5.00
2023-04-15T05:47:47.171Z,5.47
2023-04-15T05:48:50.520Z,5.87
2023-04-15T05:49:53.606Z,4.20
2023-04-15T05:50:56.857Z,5.53
2023-04-15T05:51:59.853Z,4.90
2023-04-15T05:53:02.857Z,4.53
2023-04-15T05:54:06.076Z,4.87
2023-04-15T05:55:09.725Z,5.10
2023-04-15T05:56:12.919Z,5.30
2023-04-15T05:57:15.922Z,5.28
2023-04-15T05:58:19.046Z,5.03
2023-04-15T05:59:22.145Z,4.90
2023-04-15T06:00:25.386Z,6.80
2023-04-15T06:01:28.464Z,5.57
2023-04-15T06:02:31.835Z,5.82
2023-04-15T06:03:35.072Z,6.40
2023-04-15T06:04:38.224Z,4.72
2023-04-15T06:05:41.437Z,5.28
2023-04-15T06:06:45.081Z,7.60
2023-04-15T06:07:48.713Z,5.00
2023-04-15T06:08:51.835Z,4.20
2023-04-15T06:09:55.012Z,4.70
2023-04-15T06:10:59.729Z,7.25
2023-04-15T06:12:03.308Z,5.22
2023-04-15T06:13:07.245Z,5.90
2023-04-15T06:14:10.124Z,5.40
2023-04-15T06:15:13.168Z,5.85
2023-04-15T06:16:16.712Z,6.25
2023-04-15T06:17:20.083Z,6.65
2023-04-15T06:18:23.040Z,4.75
2023-04-15T06:19:26.482Z,5.10
2023-04-15T06:20:29.836Z,4.72
2023-04-15T06:21:33.240Z,5.78
2023-04-15T06:22:38.218Z,4.97
2023-04-15T06:23:44.051Z,5.60
2023-04-15T06:24:47.173Z,5.68
2023-04-15T06:25:50.078Z,5.80
2023-04-15T06:26:53.345Z,5.30
2023-04-15T06:27:56.467Z,5.97
2023-04-15T06:28:59.730Z,6.60
2023-04-15T06:30:03.023Z,6.57
2023-04-15T06:31:06.931Z,4.72
2023-04-15T06:32:10.252Z,4.32
2023-04-15T06:33:13.714Z,7.03
2023-04-15T06:34:16.685Z,7.03
2023-04-15T06:35:19.760Z,5.30
2023-04-15T06:36:22.722Z,4.75
2023-04-15T06:37:25.759Z,4.18
2023-04-15T06:38:28.930Z,5.25
2023-04-15T06:39:32.545Z,4.45
2023-04-15T06:40:35.748Z,4.60
2023-04-15T06:41:38.750Z,4.62
2023-04-15T06:42:42.242Z,5.28
2023-04-15T06:43:45.382Z,4.37
2023-04-15T06:44:48.313Z,4.85
2023-04-15T06:45:51.252Z,5.45
2023-04-15T06:46:54.190Z,4.87
2023-04-15T06:47:57.600Z,5.30
2023-04-15T06:49:01.113Z,5.20
2023-04-15T06:50:04.788Z,5.22
2023-04-15T06:51:07.965Z,5.85
2023-04-15T06:52:11.600Z,4.00
2023-04-15T06:53:15.302Z,5.00
2023-04-15T06:54:18.462Z,4.85
2023-04-15T06:55:21.781Z,4.37
2023-04-15T06:56:24.762Z,5.15
2023-04-15T06:57:28.991Z,5.35
2023-04-15T06:58:31.993Z,5.80
2023-04-15T06:59:35.777Z,4.40
2023-04-15T07:00:39.494Z,5.70
2023-04-15T07:01:42.509Z,5.55
2023-04-15T07:02:45.728Z,6.75
2023-04-15T07:03:48.922Z,5.25
2023-04-15T07:04:52.960Z,5.65
2023-04-15T07:05:55.921Z,4.62
2023-04-15T07:06:58.872Z,4.60
2023-04-15T07:08:02.202Z,4.03
2023-04-15T07:09:05.754Z,4.45
2023-04-15T07:10:09.472Z,4.35
2023-04-15T07:11:12.659Z,5.37
2023-04-15T07:12:15.791Z,4.68
2023-04-15T07:13:18.934Z,5.20
2023-04-15T07:14:22.380Z,4.18
2023-04-15T07:15:25.382Z,4.40
2023-04-15T07:16:29.888Z,4.10
2023-04-15T07:17:33.632Z,3.80
2023-04-15T07:18:36.965Z,3.90
2023-04-15T07:19:40.338Z,3.47
2023-04-15T07:20:43.897Z,3.47
2023-04-15T07:21:47.878Z,3.72
2023-04-15T07:22:51.351Z,5.28
2023-04-15T07:23:54.574Z,3.67
2023-04-15T07:24:57.854Z,3.78
2023-04-15T07:26:01.740Z,3.97
2023-04-15T07:27:04.880Z,4.15
2023-04-15T07:28:07.892Z,4.35
2023-04-15T07:29:11.102Z,3.78
2023-04-15T07:30:14.725Z,4.60
2023-04-15T07:31:18.056Z,4.30
2023-04-15T07:32:21.166Z,3.83
2023-04-15T07:33:24.574Z,2.92
2023-04-15T07:34:30.736Z,3.22
2023-04-15T07:35:34.613Z,3.78
2023-04-15T07:36:37.751Z,3.80
2023-04-15T07:37:40.704Z,2.78
2023-04-15T07:38:43.624Z,3.25
2023-04-15T07:40:08.006Z,2.40
2023-04-15T07:41:14.124Z,2.47
2023-04-15T07:42:17.475Z,2.50
2023-04-15T07:43:21.938Z,2.83
2023-04-15T07:44:27.020Z,2.25
2023-04-15T07:45:30.077Z,2.45
2023-04-15T07:46:33.490Z,2.65
2023-04-15T07:47:36.966Z,3.20
2023-04-15T07:48:39.953Z,3.17
2023-04-15T07:49:43.759Z,3.60
2023-04-15T07:50:46.981Z,2.00
2023-04-15T07:51:50.318Z,2.60
2023-04-15T07:52:53.373Z,2.58
2023-04-15T07:53:56.644Z,3.60
2023-04-15T07:54:59.660Z,3.28
2023-04-15T07:56:02.605Z,3.05
2023-04-15T07:57:05.613Z,2.25
2023-04-15T07:58:08.696Z,2.05
2023-04-15T07:59:11.873Z,2.70
2023-04-15T08:00:16.576Z,3.80
2023-04-15T08:01:19.609Z,3.05
2023-04-15T08:02:23.188Z,2.37
2023-04-15T08:03:26.493Z,1.73
2023-04-15T08:04:29.827Z,4.40
2023-04-15T08:05:33.457Z,2.78
2023-04-15T08:06:36.974Z,3.92
2023-04-15T08:07:40.297Z,2.10
2023-04-15T08:08:43.422Z,2.08
2023-04-15T08:09:47.236Z,2.70
2023-04-15T08:10:52.371Z,2.72
2023-04-15T08:11:56.828Z,2.28
2023-04-15T08:12:59.909Z,2.67
2023-04-15T08:14:05.199Z,3.45
2023-04-15T08:15:08.642Z,6.37
2023-04-15T08:16:23.774Z,4.20
2023-04-15T08:17:27.270Z,5.85
2023-04-15T08:18:30.603Z,7.97
2023-04-15T08:19:33.661Z,4.18
2023-04-15T08:20:37.332Z,6.05
2023-04-15T08:21:41.323Z,5.28
2023-04-15T08:22:44.269Z,6.03
2023-04-15T08:23:49.760Z,8.60
2023-04-15T08:24:52.784Z,8.43
2023-04-15T08:25:55.800Z,6.87
2023-04-15T08:27:00.174Z,5.70
2023-04-15T08:28:07.685Z,7.35
2023-04-15T08:29:10.745Z,6.62
2023-04-15T08:30:14.296Z,9.13
2023-04-15T08:31:18.678Z,7.03
2023-04-15T08:32:21.746Z,9.18
2023-04-15T08:33:24.675Z,7.22
2023-04-15T08:34:28.064Z,5.87
2023-04-15T08:35:31.942Z,9.07
2023-04-15T08:36:35.291Z,7.65
2023-04-15T08:37:38.452Z,14.90
2023-04-15T08:38:42.104Z,8.13
2023-04-15T08:39:46.434Z,8.43
2023-04-15T08:40:49.860Z,8.18
2023-04-15T08:42:02.068Z,5.97
2023-04-15T08:43:08.428Z,6.75
2023-04-15T08:44:11.706Z,6.60
2023-04-15T08:45:15.349Z,4.28
2023-04-15T08:46:18.785Z,5.57
2023-04-15T08:47:24.522Z,5.97
2023-04-15T08:48:32.884Z,5.20
2023-04-15T08:49:41.659Z,5.43
2023-04-15T08:50:45.686Z,4.87
2023-04-15T08:51:49.926Z,3.85
2023-04-15T08:52:56.192Z,5.32
2023-04-15T08:54:00.075Z,5.55
2023-04-15T08:55:03.925Z,6.90
2023-04-15T08:56:10.432Z,7.32
2023-04-15T08:57:14.508Z,5.30
2023-04-15T08:58:19.932Z,5.30
2023-04-15T08:59:22.989Z,5.50
2023-04-15T09:00:27.315Z,3.72
2023-04-15T09:01:30.468Z,4.05
2023-04-15T09:02:33.940Z,3.35
2023-04-15T09:03:37.819Z,3.87
2023-04-15T09:04:40.945Z,3.83
2023-04-15T09:05:44.735Z,4.00
2023-04-15T09:06:47.840Z,3.92
2023-04-15T09:07:53.789Z,4.62
2023-04-15T09:08:57.902Z,3.62
2023-04-15T09:10:01.933Z,3.45
2023-04-15T09:11:05.190Z,4.03
2023-04-15T09:12:09.180Z,3.42
2023-04-15T09:13:12.648Z,2.75
2023-04-15T09:14:15.540Z,2.62
2023-04-15T09:15:19.187Z,3.05
2023-04-15T09:16:22.325Z,2.83
2023-04-15T09:17:26.850Z,3.83
2023-04-15T09:18:35.858Z,3.72
2023-04-15T09:19:38.840Z,2.95
2023-04-15T09:20:43.004Z,4.22
2023-04-15T09:21:48.216Z,4.28
2023-04-15T09:22:52.652Z,3.60
2023-04-15T09:24:01.138Z,6.25
2023-04-15T09:25:04.999Z,4.12
2023-04-15T09:26:08.636Z,3.78
2023-04-15T09:27:11.865Z,4.12
2023-04-15T09:28:15.081Z,3.58
2023-04-15T09:29:18.928Z,3.35
2023-04-15T09:30:22.078Z,5.30
2023-04-15T09:31:31.602Z,3.22
2023-04-15T09:32:35.126Z,4.15
2023-04-15T09:33:59.164Z,4.68
2023-04-15T09:35:12.842Z,4.78
2023-04-15T09:36:15.875Z,7.07
2023-04-15T09:37:31.523Z,6.53
2023-04-15T09:38:36.400Z,6.10
2023-04-15T09:39:52.425Z,4.40
2023-04-15T09:40:55.751Z,4.15
2023-04-15T09:42:07.754Z,3.90
2023-04-15T09:43:14.659Z,3.22
2023-04-15T09:44:27.684Z,3.08
2023-04-15T09:45:31.467Z,3.53
2023-04-15T09:46:44.563Z,3.62
2023-04-15T09:47:48.056Z,2.85
2023-04-15T09:49:09.012Z,1.98
2023-04-15T09:50:12.885Z,2.17
2023-04-15T09:51:16.426Z,2.85
2023-04-15T09:52:19.374Z,1.10
2023-04-15T09:53:23.649Z,1.10
2023-04-15T09:54:34.817Z,0.82
2023-04-15T09:55:37.948Z,0.80
2023-04-15T09:56:43.700Z,5.10
2023-04-15T09:57:47.680Z,0.70
2023-04-15T09:58:57.609Z,0.62
2023-04-15T10:00:00.747Z,0.90
2023-04-15T10:01:05.397Z,0.75
2023-04-15T10:02:08.734Z,1.27
2023-04-15T10:03:12.877Z,1.00
2023-04-15T10:04:16.744Z,1.02
2023-04-15T10:05:20.113Z,0.98
2023-04-15T10:06:24.320Z,5.00
2023-04-15T10:07:27.753Z,3.30
2023-04-15T10:08:33.345Z,1.83
2023-04-15T10:09:39.872Z,3.53
2023-04-15T10:10:42.989Z,1.65
2023-04-15T10:11:49.855Z,2.45
2023-04-15T10:12:54.919Z,3.70
2023-04-15T10:13:58.819Z,1.58
2023-04-15T10:15:06.218Z,1.77
2023-04-15T10:16:17.071Z,1.73
2023-04-15T10:17:22.905Z,1.20
2023-04-15T10:18:28.259Z,1.20
2023-04-15T10:19:33.843Z,1.05
2023-04-15T10:20:39.263Z,1.58
2023-04-15T10:21:42.754Z,0.75
2023-04-15T10:22:47.191Z,0.45
2023-04-15T10:23:51.041Z,0.52
2023-04-15T10:24:54.907Z,0.43
2023-04-15T10:25:59.262Z,0.40
2023-04-15T10:27:05.661Z,0.50
2023-04-15T10:28:09.891Z,0.80
2023-04-15T10:29:14.386Z,0.50
2023-04-15T10:30:17.952Z,0.60
2023-04-15T10:31:22.037Z,0.73
2023-04-15T10:32:26.795Z,1.95
2023-04-15T10:33:30.932Z,0.50
2023-04-15T10:34:34.419Z,1.00
2023-04-15T10:35:38.120Z,0.57
2023-04-15T10:36:41.250Z,0.65
2023-04-15T10:37:44.435Z,1.48
2023-04-15T10:38:47.708Z,1.40
2023-04-15T10:39:51.420Z,0.95
2023-04-15T10:40:54.489Z,1.45
2023-04-15T10:42:17.756Z,1.70
2023-04-15T10:43:28.774Z,0.70
2023-04-15T10:44:31.960Z,1.20
2023-04-15T10:45:37.181Z,1.12
2023-04-15T10:46:45.422Z,1.08
2023-04-15T10:47:55.420Z,0.98
2023-04-15T10:48:58.679Z,1.00
2023-04-15T10:50:02.798Z,2.00
2023-04-15T10:51:06.004Z,0.93
2023-04-15T10:52:09.182Z,1.00
2023-04-15T10:53:12.429Z,0.60
2023-04-15T10:54:17.892Z,0.80
2023-04-15T10:55:32.615Z,0.80
2023-04-15T10:56:35.689Z,1.48
2023-04-15T10:57:40.666Z,2.00
2023-04-15T10:58:44.427Z,0.68
2023-04-15T10:59:59.545Z,1.02
2023-04-15T11:01:04.791Z,0.85
2023-04-15T11:02:08.447Z,1.00
2023-04-15T11:03:12.489Z,0.80
2023-04-15T11:04:15.717Z,0.70
2023-04-15T11:05:21.014Z,1.00
2023-04-15T11:06:45.420Z,1.17
2023-04-15T11:07:51.206Z,1.62
2023-04-15T11:09:06.313Z,1.00
2023-04-15T11:10:18.735Z,1.20
2023-04-15T11:11:21.907Z,1.10
2023-04-15T11:12:36.006Z,0.90
2023-04-15T11:13:48.819Z,0.70
2023-04-15T11:14:51.848Z,1.27
2023-04-15T11:15:58.675Z,0.90
2023-04-15T11:17:01.942Z,1.67
2023-04-15T11:18:21.255Z,1.77
2023-04-15T11:19:24.205Z,0.68
2023-04-15T11:20:27.548Z,0.60
2023-04-15T11:21:30.954Z,0.70
2023-04-15T11:22:34.313Z,1.55
2023-04-15T11:23:47.060Z,0.70
2023-04-15T11:24:50.866Z,1.60
2023-04-15T11:25:56.696Z,1.23
2023-04-15T11:27:00.158Z,2.97
2023-04-15T11:28:03.996Z,0.65
2023-04-15T11:29:07.212Z,1.15
2023-04-15T11:30:24.493Z,1.90
2023-04-15T11:31:28.924Z,0.70
2023-04-15T11:32:32.353Z,0.70
2023-04-15T11:33:35.446Z,0.82
2023-04-15T11:34:38.558Z,0.60
2023-04-15T11:35:42.619Z,0.60
2023-04-15T11:36:45.706Z,0.93
2023-04-15T11:37:52.837Z,1.08
2023-04-15T11:38:59.358Z,1.55
2023-04-15T11:40:03.888Z,1.42
2023-04-15T11:41:07.087Z,0.88
2023-04-15T11:42:22.567Z,0.65
2023-04-15T11:43:25.616Z,1.10
2023-04-15T11:44:28.507Z,0.60
2023-04-15T11:45:31.859Z,0.70
2023-04-15T11:46:34.994Z,0.50
2023-04-15T11:47:39.308Z,1.00
2023-04-15T11:48:45.108Z,1.05
2023-04-15T11:49:50.805Z,1.17
2023-04-15T11:50:59.472Z,1.27
2023-04-15T11:52:02.649Z,0.82
2023-04-15T11:53:08.567Z,1.67
2023-04-15T11:54:19.737Z,1.40
2023-04-15T11:55:24.438Z,1.30
2023-04-15T11:56:27.871Z,1.73
2023-04-15T11:57:36.011Z,0.90
2023-04-15T11:58:39.888Z,0.90
2023-04-15T11:59:45.859Z,0.90
2023-04-15T12:00:59.076Z,1.25
2023-04-15T12:02:13.715Z,1.40
2023-04-15T12:03:22.996Z,1.35
2023-04-15T12:04:26.555Z,1.10
2023-04-15T12:05:29.617Z,1.02
2023-04-15T12:06:39.144Z,0.90
2023-04-15T12:08:01.364Z,0.93
2023-04-15T12:09:14.225Z,0.70
2023-04-15T12:10:18.180Z,1.30
2023-04-15T12:11:31.529Z,0.80
2023-04-15T12:12:34.647Z,0.80
2023-04-15T12:13:37.517Z,0.88
2023-04-15T12:14:40.675Z,1.65
2023-04-15T12:15:44.020Z,0.82
2023-04-15T12:16:54.153Z,0.98
2023-04-15T12:17:57.287Z,2.08
2023-04-15T12:19:01.053Z,0.75
2023-04-15T12:20:04.447Z,0.70
2023-04-15T12:21:11.330Z,0.80
2023-04-15T12:22:16.276Z,0.82
2023-04-15T12:23:22.383Z,1.62
2023-04-15T12:24:25.214Z,1.00
2023-04-15T12:25:40.177Z,0.88
2023-04-15T12:26:49.110Z,1.20
2023-04-15T12:27:53.705Z,0.85
2023-04-15T12:29:01.826Z,0.80
2023-04-15T12:30:06.368Z,4.25
2023-04-15T12:31:11.372Z,1.05
2023-04-15T12:32:16.897Z,1.17
2023-04-15T12:33:20.014Z,1.05
2023-04-15T12:34:36.743Z,1.23
2023-04-15T12:35:39.709Z,1.20
2023-04-15T12:36:43.800Z,1.23
2023-04-15T12:37:46.796Z,1.15
2023-04-15T12:38:49.842Z,1.23
2023-04-15T12:39:54.270Z,1.20
2023-04-15T12:40:57.275Z,0.80
2023-04-15T12:42:00.707Z,2.33
2023-04-15T12:43:03.752Z,1.00
2023-04-15T12:44:06.859Z,1.50
2023-04-15T12:45:09.939Z,0.98
2023-04-15T12:46:13.795Z,0.77
2023-04-15T12:47:18.264Z,1.42
2023-04-15T12:48:21.592Z,0.75
2023-04-15T12:49:25.256Z,2.85
2023-04-15T12:50:28.332Z,1.27
2023-04-15T12:51:32.253Z,1.05
2023-04-15T12:52:35.089Z,1.48
2023-04-15T12:53:38.201Z,3.25
2023-04-15T12:54:41.122Z,0.95
2023-04-15T12:55:44.253Z,0.93
2023-04-15T12:56:49.273Z,1.87
2023-04-15T12:57:54.274Z,1.00
2023-04-15T12:58:57.679Z,0.93
2023-04-15T13:00:01.020Z,1.08
2023-04-15T13:01:04.039Z,2.17
2023-04-15T13:02:08.405Z,1.23
2023-04-15T13:03:11.736Z,1.75
2023-04-15T13:04:17.653Z,1.35
2023-04-15T13:05:21.030Z,1.17
2023-04-15T13:06:25.187Z,0.88
2023-04-15T13:07:28.438Z,2.53
2023-04-15T13:08:31.997Z,1.10
2023-04-15T13:09:38.098Z,1.10
2023-04-15T13:10:42.728Z,1.20
2023-04-15T13:11:45.693Z,1.30
2023-04-15T13:12:53.921Z,1.17
2023-04-15T13:14:00.916Z,1.02
2023-04-15T13:15:05.737Z,1.40
2023-04-15T13:16:10.086Z,1.52
2023-04-15T13:17:13.390Z,1.20
2023-04-15T13:18:16.409Z,1.30
2023-04-15T13:19:19.555Z,1.33
2023-04-15T13:20:22.571Z,3.12
2023-04-15T13:21:25.734Z,1.20
2023-04-15T13:22:28.796Z,1.27
2023-04-15T13:23:32.128Z,1.30
2023-04-15T13:24:35.111Z,1.25
2023-04-15T13:25:38.316Z,2.35
2023-04-15T13:26:41.259Z,2.05
2023-04-15T13:27:44.720Z,4.03
2023-04-15T13:28:47.878Z,2.03
2023-04-15T13:29:50.861Z,1.20
2023-04-15T13:30:54.095Z,1.48
2023-04-15T13:31:57.271Z,1.15
2023-04-15T13:33:00.427Z,1.30
2023-04-15T13:34:03.897Z,1.10
2023-04-15T13:35:07.141Z,1.30
2023-04-15T13:36:10.178Z,2.95
2023-04-15T13:37:13.161Z,2.03
2023-04-15T13:38:19.017Z,1.25
2023-04-15T13:39:22.152Z,0.70
2023-04-15T13:40:25.653Z,1.25
2023-04-15T13:41:30.341Z,1.48
2023-04-15T13:42:33.756Z,1.23
2023-04-15T13:43:36.873Z,1.70
2023-04-15T13:44:39.934Z,1.15
2023-04-15T13:45:42.856Z,1.90
2023-04-15T13:46:46.538Z,1.60
2023-04-15T13:47:49.545Z,1.23
2023-04-15T13:48:52.616Z,1.30
2023-04-15T13:49:57.157Z,1.20
2023-04-15T13:51:00.077Z,1.27
2023-04-15T13:52:03.223Z,1.60
2023-04-15T13:53:06.566Z,1.12
2023-04-15T13:54:10.062Z,1.50
2023-04-15T13:55:20.559Z,1.92
2023-04-15T13:56:24.524Z,1.87
2023-04-15T13:57:31.104Z,1.10
2023-04-15T13:58:34.571Z,1.52
2023-04-15T13:59:37.595Z,2.65
2023-04-15T14:00:41.121Z,2.33
2023-04-15T14:01:45.177Z,2.17
2023-04-15T14:02:48.912Z,1.62
2023-04-15T14:03:52.074Z,1.52
2023-04-15T14:04:55.516Z,1.37
2023-04-15T14:05:59.019Z,1.90
2023-04-15T14:07:03.412Z,2.22
2023-04-15T14:08:08.466Z,1.73
2023-04-15T14:09:11.722Z,2.45
2023-04-15T14:10:15.043Z,2.85
2023-04-15T14:11:18.412Z,1.75
2023-04-15T14:12:21.576Z,2.35
2023-04-15T14:13:24.624Z,1.92
2023-04-15T14:14:27.723Z,1.20
2023-04-15T14:15:30.811Z,1.20